Bryant Pond, Maine
Current Conditions -  °F | °C
As of 9:55 AM on Monday 22 Dec 2014 (Local Time) from KLEW Reporting Station
Overcast Overcast  
Wind Chill: 22°   Ceiling: 4700
Heat Index: 28°   Visibility: 10mi
Dew Point: 25°   Wind: 6mph
Humidity: 86%   Direction: 10°N
Pressure: 30.42"   Gusts: NA
Location:  44.37°N, 70.64°W
Report Text: KLEW 221455Z AUTO 01005KT 10SM OVC047 M02/M04 A3042 RMK AO1 52007
Loading
Personal Weather Stations






























Interactive Weather Map New forecast layout! Learn more

10-Day Weather Forecast

Advertisements
Track Severe Weather on mobile